KGWO/GWO METAR and TAF weather

Enter ICAO airport designator
Station Type Date Time Source
KGWO METAR 2021/04/13 06:53 UTC NOAA

KGWO 130653Z AUTO 00000KT 10SM CLR 16/12 A2994 RMK AO2 SLP136 T01560122


Station Type Date Time Source
KGWO Decoded METAR 2021/04/13 06:53 UTC NOAA

GREENWOOD-LEFLORE AIRPORT, MS, United States (KGWO) 33-30N 090-05W 44M
Apr 13, 2021 - 02:53 AM EDT / 2021.04.13 0653 UTC
Wind: Calm:0
Visibility: 10 mile(s):0
Sky conditions: clear
Temperature: 60.1 F (15.6 C)
Dew Point: 54.0 F (12.2 C)
Relative Humidity: 80%
Pressure (altimeter): 29.94 in. Hg (1013 hPa)
ob: KGWO 130653Z AUTO 00000KT 10SM CLR 16/12 A2994 RMK AO2 SLP136 T01560122
cycle: 7

Station Type Date Time Source
KGWO TAF 2021/04/13 06:42 UTC NOAA

TAF KGWO 130539Z 1306/1406 VRB03KT P6SM SCT090 BKN250
FM140000 VRB03KT P6SM FEW050 SCT250

Example: see airport list